createdAt,value
2018-11-01T00:01:24.772Z,5.25
2018-11-01T00:05:28.445Z,5.17
2018-11-01T00:09:32.152Z,3.47
2018-11-01T00:13:35.873Z,5.97
2018-11-01T00:17:39.777Z,3.67
2018-11-01T00:21:43.549Z,4.07
2018-11-01T00:25:47.275Z,3.55
2018-11-01T00:29:50.953Z,3.27
2018-11-01T00:33:54.830Z,5.57
2018-11-01T00:37:58.535Z,4.67
2018-11-01T00:42:02.283Z,3.52
2018-11-01T00:46:06.393Z,3.62
2018-11-01T00:50:14.020Z,3.90
2018-11-01T00:54:17.724Z,2.98
2018-11-01T00:58:21.428Z,3.47
2018-11-01T01:02:25.120Z,4.10
2018-11-01T01:06:28.830Z,2.70
2018-11-01T01:10:32.493Z,3.00
2018-11-01T01:14:37.302Z,2.90
2018-11-01T01:18:41.001Z,5.87
2018-11-01T01:22:45.654Z,3.00
2018-11-01T01:26:49.367Z,4.00
2018-11-01T01:30:53.040Z,3.12
2018-11-01T01:34:56.771Z,7.07
2018-11-01T01:39:00.572Z,3.22
2018-11-01T01:43:04.508Z,3.85
2018-11-01T01:47:08.252Z,3.00
2018-11-01T01:51:12.024Z,4.22
2018-11-01T01:55:15.796Z,3.40
2018-11-01T01:59:19.510Z,3.20
2018-11-01T02:03:23.213Z,4.08
2018-11-01T02:07:26.937Z,4.92
2018-11-01T02:11:30.623Z,4.08
2018-11-01T02:15:34.336Z,4.78
2018-11-01T02:19:38.031Z,5.00
2018-11-01T02:23:41.788Z,3.60
2018-11-01T02:27:50.760Z,3.83
2018-11-01T02:31:54.517Z,3.35
2018-11-01T02:35:58.264Z,4.15
2018-11-01T02:40:01.992Z,3.87
2018-11-01T02:44:06.280Z,3.45
2018-11-01T02:48:09.995Z,3.60
2018-11-01T02:52:13.688Z,3.55
2018-11-01T02:56:17.402Z,4.05
2018-11-01T03:00:21.164Z,4.13
2018-11-01T03:04:24.901Z,4.50
2018-11-01T03:08:28.689Z,3.70
2018-11-01T03:12:32.389Z,3.53
2018-11-01T03:16:36.101Z,4.20
2018-11-01T03:20:39.818Z,4.55
2018-11-01T03:24:43.564Z,2.97
2018-11-01T03:28:47.303Z,4.17
2018-11-01T03:32:51.059Z,3.17
2018-11-01T03:36:54.777Z,5.10
2018-11-01T03:40:58.476Z,5.10
2018-11-01T03:45:02.189Z,4.40
2018-11-01T03:49:06.397Z,4.10
2018-11-01T03:53:10.196Z,3.33
2018-11-01T03:57:13.863Z,4.05
2018-11-01T04:01:17.711Z,4.72
2018-11-01T04:05:21.407Z,4.97
2018-11-01T04:09:25.122Z,3.52
2018-11-01T04:13:28.924Z,4.03
2018-11-01T04:17:32.532Z,4.87
2018-11-01T04:21:36.709Z,6.20
2018-11-01T04:25:40.440Z,7.77
2018-11-01T04:29:44.144Z,3.60
2018-11-01T04:33:47.989Z,4.55
2018-11-01T04:37:51.604Z,5.30
2018-11-01T04:41:55.303Z,5.20
2018-11-01T04:45:59.023Z,6.37
2018-11-01T04:50:02.707Z,4.92
2018-11-01T04:54:06.600Z,5.08
2018-11-01T04:58:10.282Z,5.58
2018-11-01T05:02:13.985Z,5.87
2018-11-01T05:06:17.752Z,5.60
2018-11-01T05:10:21.476Z,5.80
2018-11-01T05:14:25.136Z,5.10
2018-11-01T05:18:28.844Z,5.37
2018-11-01T05:22:32.536Z,6.80
2018-11-01T05:26:36.245Z,6.67
2018-11-01T05:30:39.968Z,5.30
2018-11-01T05:34:43.712Z,5.45
2018-11-01T05:38:47.458Z,5.20
2018-11-01T05:42:51.203Z,4.83
2018-11-01T05:46:54.970Z,4.95
2018-11-01T05:50:58.694Z,5.73
2018-11-01T05:55:02.431Z,4.85
2018-11-01T05:59:06.556Z,4.72
2018-11-01T06:03:10.372Z,6.65
2018-11-01T06:07:14.202Z,5.08
2018-11-01T06:11:17.867Z,6.62
2018-11-01T06:15:21.640Z,6.87
2018-11-01T06:19:25.371Z,6.87
2018-11-01T06:23:29.049Z,5.90
2018-11-01T06:27:32.774Z,6.80
2018-11-01T06:31:36.480Z,4.92
2018-11-01T06:35:49.596Z,6.43
2018-11-01T06:39:53.311Z,6.62
2018-11-01T06:43:57.057Z,5.70
2018-11-01T06:48:00.832Z,5.70
2018-11-01T06:52:04.720Z,10.30
2018-11-01T06:56:08.415Z,12.07
2018-11-01T07:00:14.528Z,8.93
2018-11-01T07:04:18.259Z,7.53
2018-11-01T07:08:22.025Z,6.15
2018-11-01T07:12:25.738Z,6.47
2018-11-01T07:16:29.497Z,6.53
2018-11-01T07:20:33.229Z,6.90
2018-11-01T07:24:36.943Z,6.15
2018-11-01T07:28:40.749Z,6.60
2018-11-01T07:32:44.615Z,8.55
2018-11-01T07:36:48.248Z,8.83
2018-11-01T07:40:51.950Z,6.72
2018-11-01T07:44:55.735Z,8.43
2018-11-01T07:48:59.491Z,9.23
2018-11-01T07:53:03.224Z,8.03
2018-11-01T07:57:06.924Z,9.77
2018-11-01T08:01:10.832Z,7.62
2018-11-01T08:05:15.008Z,8.60
2018-11-01T08:09:18.694Z,10.03
2018-11-01T08:13:22.388Z,6.97
2018-11-01T08:17:26.068Z,7.50
2018-11-01T08:21:29.737Z,8.67
2018-11-01T08:25:33.431Z,9.00
2018-11-01T08:29:37.115Z,8.23
2018-11-01T08:33:40.880Z,8.53
2018-11-01T08:37:45.276Z,8.30
2018-11-01T08:41:49.020Z,8.28
2018-11-01T08:45:52.728Z,7.27
2018-11-01T08:49:56.519Z,8.60
2018-11-01T08:54:00.195Z,7.42
2018-11-01T08:58:03.900Z,9.83
2018-11-01T09:02:07.626Z,8.00
2018-11-01T09:06:12.012Z,7.90
2018-11-01T09:10:16.986Z,7.03
2018-11-01T09:14:20.699Z,7.70
2018-11-01T09:18:24.401Z,8.03
2018-11-01T09:22:28.116Z,6.97
2018-11-01T09:26:31.829Z,8.43
2018-11-01T09:30:35.576Z,7.08
2018-11-01T09:34:39.315Z,7.97
2018-11-01T09:38:43.152Z,9.08
2018-11-01T09:42:46.935Z,7.63
2018-11-01T09:46:50.959Z,7.72
2018-11-01T09:50:54.383Z,7.53
2018-11-01T09:54:58.348Z,7.87
2018-11-01T09:59:02.105Z,7.80
2018-11-01T10:03:06.099Z,7.42
2018-11-01T10:07:09.832Z,7.12
2018-11-01T10:11:13.598Z,7.95
2018-11-01T10:15:17.364Z,6.33
2018-11-01T10:19:21.108Z,7.55
2018-11-01T10:23:24.892Z,7.42
2018-11-01T10:27:28.660Z,7.85
2018-11-01T10:31:32.500Z,6.57
2018-11-01T10:35:36.249Z,7.17
2018-11-01T10:39:40.016Z,8.90
2018-11-01T10:43:43.780Z,7.63
2018-11-01T10:47:47.668Z,8.43
2018-11-01T10:51:51.490Z,8.95
2018-11-01T10:55:55.355Z,8.28
2018-11-01T10:59:59.210Z,8.93
2018-11-01T11:04:02.940Z,10.58
2018-11-01T11:08:06.750Z,9.05
2018-11-01T11:12:10.486Z,7.75
2018-11-01T11:16:14.276Z,9.13
2018-11-01T11:20:18.357Z,8.85
2018-11-01T11:24:22.033Z,9.65
2018-11-01T11:28:25.873Z,9.00
2018-11-01T11:32:29.763Z,9.33
2018-11-01T11:36:33.588Z,7.90
2018-11-01T11:40:37.356Z,9.35
2018-11-01T11:44:41.128Z,9.30
2018-11-01T11:48:44.899Z,9.10
2018-11-01T11:52:48.612Z,9.10
2018-11-01T11:56:52.392Z,7.77
2018-11-01T12:00:56.068Z,8.65
2018-11-01T12:04:59.823Z,8.80
2018-11-01T12:09:03.663Z,7.77
2018-11-01T12:13:07.388Z,10.68
2018-11-01T12:17:11.052Z,8.95
2018-11-01T12:21:14.709Z,9.40
2018-11-01T12:25:18.442Z,9.55
2018-11-01T12:29:22.230Z,8.25
2018-11-01T12:33:26.069Z,8.08
2018-11-01T12:37:29.812Z,8.75
2018-11-01T12:41:33.543Z,9.83
2018-11-01T12:45:37.276Z,8.90
2018-11-01T12:49:41.119Z,11.15
2018-11-01T12:53:44.792Z,11.55
2018-11-01T12:57:48.524Z,10.83
2018-11-01T13:01:52.269Z,11.05
2018-11-01T13:05:56.005Z,9.18
2018-11-01T13:10:00.032Z,11.87
2018-11-01T13:14:03.731Z,10.77
2018-11-01T13:18:07.528Z,11.55
2018-11-01T13:22:11.268Z,9.85
2018-11-01T13:26:15.039Z,15.57
2018-11-01T13:30:18.789Z,11.35
2018-11-01T13:34:22.531Z,11.53
2018-11-01T13:38:26.209Z,10.70
2018-11-01T13:42:29.929Z,11.15
2018-11-01T13:46:33.723Z,12.43
2018-11-01T13:50:37.436Z,10.70
2018-11-01T13:54:42.752Z,11.70
2018-11-01T13:58:46.466Z,10.43
2018-11-01T14:02:50.235Z,12.45
2018-11-01T14:06:54.006Z,10.47
2018-11-01T14:10:57.707Z,10.90
2018-11-01T14:15:01.731Z,12.18
2018-11-01T14:19:05.328Z,11.85
2018-11-01T14:23:09.032Z,11.68
2018-11-01T14:27:12.995Z,10.23
2018-11-01T14:31:16.828Z,12.67
2018-11-01T14:35:20.491Z,12.23
2018-11-01T14:39:24.208Z,14.40
2018-11-01T14:43:27.924Z,11.68
2018-11-01T14:47:31.625Z,11.97
2018-11-01T14:51:35.382Z,13.77
2018-11-01T14:55:40.432Z,11.70
2018-11-01T14:59:43.747Z,11.45
2018-11-01T15:03:46.572Z,12.58
2018-11-01T15:07:50.298Z,11.55
2018-11-01T15:11:54.023Z,11.97
2018-11-01T15:15:57.759Z,10.93
2018-11-01T15:20:01.499Z,14.13
2018-11-01T15:24:05.878Z,13.47
2018-11-01T15:28:09.613Z,12.40
2018-11-01T15:32:18.774Z,14.83
2018-11-01T15:36:22.558Z,15.50
2018-11-01T15:40:26.321Z,13.15
2018-11-01T15:44:30.925Z,12.95
2018-11-01T15:48:34.961Z,14.63
2018-11-01T15:52:38.836Z,15.63
2018-11-01T15:56:42.535Z,13.83
2018-11-01T16:00:46.256Z,15.32
2018-11-01T16:04:49.956Z,14.25
2018-11-01T16:08:53.647Z,13.90
2018-11-01T16:12:57.378Z,16.17
2018-11-01T16:17:01.110Z,14.40
2018-11-01T16:21:05.095Z,14.58
2018-11-01T16:25:08.807Z,14.18
2018-11-01T16:29:13.053Z,15.10
2018-11-01T16:33:16.780Z,16.07
2018-11-01T16:37:20.592Z,16.42
2018-11-01T16:41:24.306Z,12.98
2018-11-01T16:45:28.003Z,15.17
2018-11-01T16:49:31.809Z,14.30
2018-11-01T16:53:35.508Z,12.28
2018-11-01T16:57:39.279Z,15.00
2018-11-01T17:01:42.977Z,14.55
2018-11-01T17:05:46.707Z,10.50
2018-11-01T17:09:50.425Z,7.23
2018-11-01T17:13:54.107Z,7.72
2018-11-01T17:17:57.809Z,7.40
2018-11-01T17:22:01.533Z,7.60
2018-11-01T17:26:05.406Z,8.85
2018-11-01T17:30:09.817Z,7.95
2018-11-01T17:34:13.657Z,8.70
2018-11-01T17:38:17.259Z,10.18
2018-11-01T17:42:20.959Z,10.53
2018-11-01T17:46:24.697Z,8.38
2018-11-01T17:50:28.391Z,9.40
2018-11-01T17:54:32.098Z,10.55
2018-11-01T17:58:35.807Z,21.42
2018-11-01T18:02:40.046Z,9.73
2018-11-01T18:06:43.708Z,18.82
2018-11-01T18:10:47.404Z,15.43
2018-11-01T18:14:51.128Z,8.65
2018-11-01T18:18:54.895Z,9.55
2018-11-01T18:22:58.630Z,11.10
2018-11-01T18:27:02.307Z,9.60
2018-11-01T18:31:06.180Z,10.88
2018-11-01T18:35:10.716Z,10.60
2018-11-01T18:39:14.487Z,8.65
2018-11-01T18:43:18.144Z,9.40
2018-11-01T18:47:21.851Z,9.90
2018-11-01T18:51:25.874Z,9.73
2018-11-01T18:55:29.620Z,21.33
2018-11-01T18:59:33.351Z,8.97
2018-11-01T19:03:37.096Z,11.57
2018-11-01T19:07:41.341Z,11.35
2018-11-01T19:11:45.092Z,34.73
2018-11-01T19:15:49.101Z,11.43
2018-11-01T19:19:53.101Z,9.63
2018-11-01T19:23:56.955Z,12.80
2018-11-01T19:28:00.716Z,10.63
2018-11-01T19:32:04.431Z,9.98
2018-11-01T19:36:08.165Z,9.23
2018-11-01T19:40:13.952Z,9.73
2018-11-01T19:44:17.661Z,9.85
2018-11-01T19:48:21.408Z,15.10
2018-11-01T19:52:25.134Z,17.20
2018-11-01T19:56:28.848Z,24.37
2018-11-01T20:00:32.592Z,11.30
2018-11-01T20:04:36.364Z,11.83
2018-11-01T20:08:40.093Z,10.18
2018-11-01T20:12:44.183Z,11.73
2018-11-01T20:16:47.888Z,10.20
2018-11-01T20:20:52.006Z,10.95
2018-11-01T20:24:56.606Z,9.98
2018-11-01T20:29:00.358Z,9.75
2018-11-01T20:33:04.172Z,9.88
2018-11-01T20:37:07.892Z,13.03
2018-11-01T20:41:11.581Z,9.33
2018-11-01T20:45:15.379Z,10.40
2018-11-01T20:49:19.070Z,10.20
2018-11-01T20:53:22.807Z,10.27
2018-11-01T20:57:26.549Z,9.60
2018-11-01T21:01:30.254Z,9.35
2018-11-01T21:05:33.973Z,9.68
2018-11-01T21:09:37.697Z,9.50
2018-11-01T21:13:41.381Z,9.48
2018-11-01T21:17:45.103Z,9.88
2018-11-01T21:21:48.786Z,9.70
2018-11-01T21:25:52.491Z,10.17
2018-11-01T21:29:56.184Z,10.48
2018-11-01T21:33:59.900Z,10.27
2018-11-01T21:38:03.585Z,10.72
2018-11-01T21:42:07.305Z,9.48
2018-11-01T21:46:11.021Z,9.27
2018-11-01T21:50:14.708Z,8.70
2018-11-01T21:54:18.385Z,9.18
2018-11-01T21:58:22.063Z,8.28
2018-11-01T22:02:25.770Z,7.30
2018-11-01T22:06:29.480Z,7.50
2018-11-01T22:10:33.192Z,7.92
2018-11-01T22:14:36.876Z,7.97
2018-11-01T22:18:40.572Z,7.15
2018-11-01T22:22:44.305Z,8.33
2018-11-01T22:26:48.028Z,7.30
2018-11-01T22:30:51.729Z,7.35
2018-11-01T22:34:55.452Z,7.95
2018-11-01T22:38:59.159Z,6.90
2018-11-01T22:43:02.934Z,7.75
2018-11-01T22:47:07.102Z,8.78
2018-11-01T22:51:10.905Z,6.35
2018-11-01T22:55:14.594Z,6.12
2018-11-01T22:59:18.308Z,5.60
2018-11-01T23:03:22.046Z,5.92
2018-11-01T23:07:25.757Z,7.28
2018-11-01T23:11:29.475Z,7.63
2018-11-01T23:15:33.187Z,6.10
2018-11-01T23:19:37.003Z,7.33
2018-11-01T23:23:40.921Z,7.80
2018-11-01T23:27:44.640Z,6.80
2018-11-01T23:31:48.432Z,5.78
2018-11-01T23:35:52.119Z,6.40
2018-11-01T23:40:01.110Z,6.20
2018-11-01T23:44:10.259Z,6.10
2018-11-01T23:48:13.195Z,9.07
2018-11-01T23:52:21.238Z,6.07
2018-11-01T23:56:24.993Z,6.70
